Details From MUCC - Jardines Del Rey
To MUCU - Santiago De Cuba Antonio Maceo Intl
Flight Number -
Tags Decoded
Created
Modified
Stats Distance 210 nm / 389 km
Max Altitude 0 ft / 0 m
Waypoints 4
Social Downloads 2
Likes 0
Share VATSIM

Download

Looking for another format? Having issues loading an existing format? Contact us
Advertisement - Login to hide

Notes

Decoded

Route

MUCC UCM UBY MUCU

ID Type Via Altitude Latitude Longitude Leg Dist Tot Dist Heading (true) Name
O MUCC APT - 0 ft / 0 m 22.45654˚ -78.34238˚ - 0 nm - -
UCM VOR - 0 ft / 0 m 21.43744˚ -77.80084˚ 68 nm 68 nm 154° / 154° CAMAGUEY VOR-DME
UBY NDB - 0 ft / 0 m 20.39389˚ -76.61917˚ 91 nm 159 nm 133° / 134° BAYAMO NDB
O MUCU APT - 0 ft / 0 m 19.98075˚ -75.83554˚ 50 nm 210 nm 119° / 119° -

Altitude Profile

Advertisement - Login to hide

Weather


0- 5 10 15 20 25 30 35+ Temperature / ° C

Clouds and Precipitation
Forecast for 2017-12-11 00:00 UTC. Updated an hour ago

Ground ~20,000 ft ~40,000 ft Winds

MUCC

Details ICAO MUCC
Name JARDINES DEL REY
Region Cuba
Timezone America/Havana (UTC-5.0)
Stats Elevation 13 ft / 4 m (AMSL)
Location 22.460945° -78.328602°
Runways 1
Magnetic Variation 7.316° W

METAR

MUCC 102351Z 02015KT 9000 BKN020 22/14 Q1020

Decode

TAF

Not found

Departure Runways

ID Width Length Bearing (true) Bearing (mag) Surface Threshold Offset Overrun Length
08 148 ft / 45 m 9,835 ft / 2,998 m 70.91° 78.23° Asphalt 0 ft / 0 m 0 ft / 0 m
26 148 ft / 45 m 9,835 ft / 2,998 m 250.92° 258.24° Asphalt 0 ft / 0 m 0 ft / 0 m

MUCU

Details ICAO MUCU (SCU)
Name Santiago de Cuba Antonio Maceo Intl
Region Cuba
Timezone America/Havana (UTC-5.0)
Stats Elevation 249 ft / 76 m (AMSL)
Location 19.972337° -75.835517°
Runways 2
Magnetic Variation 8.401° W

METAR

MUCU 102350Z 35012KT 8000 SCT015 SCT060 23/21 Q1016

Decode

TAF

TAF TAF AMD MUCU 102026Z 1021/1118 35009KT 8000 BKN015 TEMPO 1021/1024 5000 RA

Decode

Destination Runways

ID Width Length Bearing (true) Bearing (mag) Surface Threshold Offset Overrun Length
09 148 ft / 45 m 13,107 ft / 3,995 m 89.29° 97.69° Asphalt 985 ft / 300 m 0 ft / 0 m
18 148 ft / 45 m 4,272 ft / 1,302 m 179.40° 187.80° Asphalt 0 ft / 0 m 0 ft / 0 m
27 148 ft / 45 m 13,107 ft / 3,995 m 269.30° 277.70° Asphalt 980 ft / 299 m 340 ft / 104 m
36 148 ft / 45 m 4,272 ft / 1,302 m 359.40° 7.80° Asphalt 0 ft / 0 m 0 ft / 0 m

Approach Navaids

Runway Type Ident Frequency Range Bearing (true) Bearing (mag) Slope Elevation
09 Localiser ICU 110.70 MHz 18 nm / 33 km 85.21° 93.61° - 249 ft / 76 m (AMSL)
09 Glidescope ICU 110.70 MHz 10 nm / 19 km 89.30° 97.70° 3.00° 249 ft / 76 m (AMSL)

Popular Alternatives